Pembury, United Kingdom
Current Conditions -  °F | °C
As of 2:50 PM on Saturday 25 Oct 2014 (Local Time) from EGKB Reporting Station
Scattered Clouds Scattered Clouds  
Wind Chill: 57°   Ceiling: Unl
Heat Index: 57°   Visibility: 6mi
Dew Point: 43°   Wind: 9mph
Humidity: 59%   Direction: 220°SW
Pressure: 30.09"   Gusts: NA
Location:  51.14°N, 0.32°E
Report Text: EGKB 251350Z 22008KT 170V250 9999 SCT045 14/06 Q1019
Loading
Personal Weather Stations






























Interactive Weather Map
Tropical Storm Tracking
New forecast layout! Learn more

10-Day Weather Forecast

Advertisements
Track Severe Weather on mobile